createdAt,value
2018-12-09T00:00:29.660Z,6.90
2018-12-09T00:03:01.122Z,6.90
2018-12-09T00:05:32.719Z,6.90
2018-12-09T00:08:04.330Z,6.90
2018-12-09T00:10:35.836Z,6.90
2018-12-09T00:13:07.330Z,6.90
2018-12-09T00:15:38.844Z,6.90
2018-12-09T00:18:10.335Z,6.90
2018-12-09T00:20:41.855Z,6.90
2018-12-09T00:23:13.439Z,6.90
2018-12-09T00:25:44.950Z,6.90
2018-12-09T00:28:16.362Z,6.90
2018-12-09T00:30:47.933Z,6.80
2018-12-09T00:33:19.364Z,6.90
2018-12-09T00:35:50.948Z,6.90
2018-12-09T00:38:22.498Z,6.90
2018-12-09T00:40:54.056Z,6.90
2018-12-09T00:43:25.607Z,6.90
2018-12-09T00:45:57.156Z,6.90
2018-12-09T00:48:28.587Z,6.90
2018-12-09T00:51:00.170Z,6.90
2018-12-09T00:53:31.582Z,6.80
2018-12-09T00:56:03.187Z,6.80
2018-12-09T00:58:34.699Z,6.90
2018-12-09T01:01:06.504Z,6.90
2018-12-09T01:03:37.991Z,6.90
2018-12-09T01:06:09.493Z,6.90
2018-12-09T01:08:41.042Z,6.90
2018-12-09T01:11:12.621Z,7.00
2018-12-09T01:13:43.967Z,7.00
2018-12-09T01:16:15.721Z,7.00
2018-12-09T01:18:47.269Z,7.00
2018-12-09T01:21:18.542Z,7.10
2018-12-09T01:23:49.885Z,7.10
2018-12-09T01:26:21.503Z,7.20
2018-12-09T01:28:53.022Z,7.20
2018-12-09T01:31:24.623Z,7.30
2018-12-09T01:33:56.126Z,7.20
2018-12-09T01:36:27.746Z,7.30
2018-12-09T01:38:59.237Z,7.30
2018-12-09T01:41:30.839Z,7.30
2018-12-09T01:44:02.494Z,7.40
2018-12-09T01:46:34.163Z,7.40
2018-12-09T01:49:05.662Z,7.40
2018-12-09T01:51:37.171Z,7.50
2018-12-09T01:54:13.072Z,7.50
2018-12-09T01:56:44.689Z,7.50
2018-12-09T01:59:15.999Z,7.60
2018-12-09T02:01:47.570Z,7.60
2018-12-09T02:04:19.076Z,7.60
2018-12-09T02:06:50.795Z,7.70
2018-12-09T02:09:22.445Z,7.70
2018-12-09T02:11:54.004Z,7.80
2018-12-09T02:14:25.907Z,7.80
2018-12-09T02:16:57.412Z,7.80
2018-12-09T02:19:28.908Z,7.80
2018-12-09T02:22:00.418Z,7.90
2018-12-09T02:24:31.850Z,7.90
2018-12-09T02:27:03.411Z,8.00
2018-12-09T02:29:34.931Z,8.00
2018-12-09T02:32:06.523Z,7.90
2018-12-09T02:34:37.951Z,7.90
2018-12-09T02:37:09.535Z,7.90
2018-12-09T02:39:40.960Z,7.90
2018-12-09T02:42:12.908Z,7.90
2018-12-09T02:44:44.504Z,7.90
2018-12-09T02:47:15.757Z,7.90
2018-12-09T02:49:47.398Z,8.00
2018-12-09T02:52:18.835Z,8.00
2018-12-09T02:54:50.873Z,8.00
2018-12-09T02:57:22.433Z,7.90
2018-12-09T02:59:53.931Z,8.00
2018-12-09T03:02:25.531Z,8.00
2018-12-09T03:04:56.999Z,8.00
2018-12-09T03:07:28.652Z,8.00
2018-12-09T03:10:00.543Z,8.00
2018-12-09T03:12:32.092Z,8.00
2018-12-09T03:15:03.658Z,8.10
2018-12-09T03:17:35.210Z,8.00
2018-12-09T03:20:07.414Z,8.10
2018-12-09T03:22:38.923Z,8.10
2018-12-09T03:25:10.495Z,8.10
2018-12-09T03:27:41.967Z,8.10
2018-12-09T03:30:13.559Z,8.10
2018-12-09T03:32:45.062Z,8.10
2018-12-09T03:35:16.660Z,8.20
2018-12-09T03:37:48.159Z,8.20
2018-12-09T03:40:19.763Z,8.20
2018-12-09T03:42:51.278Z,8.20
2018-12-09T03:45:22.812Z,8.20
2018-12-09T03:47:54.357Z,8.20
2018-12-09T03:50:25.978Z,8.10
2018-12-09T03:52:57.595Z,8.10
2018-12-09T03:55:29.192Z,8.00
2018-12-09T03:58:00.586Z,8.00
2018-12-09T04:00:32.197Z,8.00
2018-12-09T04:03:03.715Z,7.90
2018-12-09T04:05:35.201Z,7.90
2018-12-09T04:08:06.983Z,7.80
2018-12-09T04:10:38.547Z,7.70
2018-12-09T04:13:09.982Z,7.70
2018-12-09T04:15:43.036Z,7.60
2018-12-09T04:18:14.949Z,7.60
2018-12-09T04:20:46.521Z,7.60
2018-12-09T04:23:19.934Z,7.60
2018-12-09T04:25:51.486Z,7.50
2018-12-09T04:28:22.723Z,7.40
2018-12-09T04:30:54.271Z,7.40
2018-12-09T04:33:25.628Z,7.30
2018-12-09T04:35:57.165Z,7.30
2018-12-09T04:38:28.589Z,7.20
2018-12-09T04:41:00.178Z,7.20
2018-12-09T04:43:31.853Z,7.20
2018-12-09T04:46:03.388Z,7.10
2018-12-09T04:48:34.843Z,7.10
2018-12-09T04:51:06.459Z,7.10
2018-12-09T04:53:37.959Z,7.10
2018-12-09T04:56:09.558Z,7.00
2018-12-09T04:58:52.879Z,7.00
2018-12-09T05:01:24.290Z,6.80
2018-12-09T05:03:55.940Z,6.70
2018-12-09T05:06:27.405Z,6.70
2018-12-09T05:08:58.999Z,6.60
2018-12-09T05:11:30.507Z,6.60
2018-12-09T05:14:01.964Z,6.60
2018-12-09T05:16:33.420Z,6.50
2018-12-09T05:19:04.930Z,6.50
2018-12-09T05:21:36.413Z,6.50
2018-12-09T05:24:08.029Z,6.60
2018-12-09T05:26:39.631Z,6.60
2018-12-09T05:29:11.024Z,6.60
2018-12-09T05:31:42.610Z,6.60
2018-12-09T05:34:14.647Z,6.70
2018-12-09T05:36:46.151Z,6.70
2018-12-09T05:39:17.575Z,6.80
2018-12-09T05:41:49.062Z,6.80
2018-12-09T05:44:21.099Z,6.90
2018-12-09T05:46:52.613Z,6.90
2018-12-09T05:49:24.120Z,7.00
2018-12-09T05:51:55.728Z,7.00
2018-12-09T05:54:27.686Z,7.10
2018-12-09T05:56:59.277Z,7.00
2018-12-09T05:59:30.703Z,7.00
2018-12-09T06:02:18.362Z,7.10
2018-12-09T06:04:49.915Z,7.10
2018-12-09T06:07:21.426Z,7.10
2018-12-09T06:09:53.023Z,7.10
2018-12-09T06:12:24.399Z,7.10
2018-12-09T06:14:55.926Z,7.10
2018-12-09T06:17:27.504Z,7.10
2018-12-09T06:19:59.095Z,7.10
2018-12-09T06:22:30.890Z,7.10
2018-12-09T06:25:02.572Z,7.10
2018-12-09T06:27:34.170Z,7.20
2018-12-09T06:30:06.787Z,7.10
2018-12-09T06:32:38.355Z,7.10
2018-12-09T06:35:10.282Z,7.20
2018-12-09T06:37:41.939Z,7.20
2018-12-09T06:40:13.622Z,7.20
2018-12-09T06:42:45.170Z,7.20
2018-12-09T06:45:16.724Z,7.20
2018-12-09T06:47:48.184Z,7.20
2018-12-09T06:50:19.453Z,7.00
2018-12-09T06:52:50.976Z,7.10
2018-12-09T06:55:22.442Z,7.10
2018-12-09T06:57:54.050Z,7.10
2018-12-09T07:00:25.555Z,7.00
2018-12-09T07:02:57.249Z,7.00
2018-12-09T07:05:28.758Z,7.00
2018-12-09T07:08:00.215Z,7.00
2018-12-09T07:10:31.660Z,7.00
2018-12-09T07:13:03.323Z,6.90
2018-12-09T07:15:36.826Z,6.90
2018-12-09T07:18:08.419Z,6.80
2018-12-09T07:20:39.943Z,6.70
2018-12-09T07:23:11.734Z,6.70
2018-12-09T07:25:43.284Z,6.70
2018-12-09T07:28:14.879Z,6.70
2018-12-09T07:30:46.350Z,6.70
2018-12-09T07:33:17.851Z,6.70
2018-12-09T07:35:49.368Z,6.70
2018-12-09T07:38:20.945Z,6.70
2018-12-09T07:40:54.141Z,6.80
2018-12-09T07:43:25.856Z,6.80
2018-12-09T07:45:57.298Z,6.80
2018-12-09T07:48:28.953Z,6.90
2018-12-09T07:51:00.328Z,6.90
2018-12-09T07:53:32.063Z,7.00
2018-12-09T07:56:03.483Z,7.00
2018-12-09T07:58:35.068Z,7.00
2018-12-09T08:01:06.549Z,7.00
2018-12-09T08:03:38.069Z,7.10
2018-12-09T08:06:09.538Z,7.10
2018-12-09T08:08:40.939Z,7.20
2018-12-09T08:11:12.524Z,7.20
2018-12-09T08:13:44.040Z,7.30
2018-12-09T08:16:15.631Z,7.40
2018-12-09T08:18:47.051Z,7.40
2018-12-09T08:21:18.649Z,7.40
2018-12-09T08:23:50.259Z,7.40
2018-12-09T08:26:21.783Z,7.40
2018-12-09T08:28:53.385Z,7.40
2018-12-09T08:31:24.691Z,7.50
2018-12-09T08:33:56.065Z,7.60
2018-12-09T08:36:27.645Z,7.60
2018-12-09T08:38:59.266Z,7.70
2018-12-09T08:41:30.757Z,7.70
2018-12-09T08:44:02.167Z,7.60
2018-12-09T08:46:33.667Z,7.60
2018-12-09T08:49:05.131Z,7.60
2018-12-09T08:51:36.554Z,7.60
2018-12-09T08:54:08.134Z,7.50
2018-12-09T08:56:39.743Z,7.50
2018-12-09T08:59:11.252Z,7.50
2018-12-09T09:01:42.847Z,7.50
2018-12-09T09:04:14.352Z,7.50
2018-12-09T09:06:45.946Z,7.50
2018-12-09T09:09:17.341Z,7.50
2018-12-09T09:11:48.771Z,7.50
2018-12-09T09:14:20.350Z,7.50
2018-12-09T09:16:51.685Z,7.50
2018-12-09T09:19:23.256Z,7.50
2018-12-09T09:21:54.692Z,7.50
2018-12-09T09:24:26.031Z,7.50
2018-12-09T09:26:57.561Z,7.50
2018-12-09T09:29:28.950Z,7.50
2018-12-09T09:32:00.439Z,7.50
2018-12-09T09:34:31.963Z,7.50
2018-12-09T09:37:03.437Z,7.50
2018-12-09T09:39:34.972Z,7.50
2018-12-09T09:42:06.422Z,7.50
2018-12-09T09:44:38.029Z,7.50
2018-12-09T09:47:09.551Z,7.60
2018-12-09T09:49:41.139Z,7.60
2018-12-09T09:52:12.752Z,7.60
2018-12-09T09:54:44.348Z,7.70
2018-12-09T09:57:15.939Z,7.70
2018-12-09T09:59:47.565Z,7.70
2018-12-09T10:02:19.201Z,7.60
2018-12-09T10:04:50.573Z,7.70
2018-12-09T10:07:21.879Z,7.70
2018-12-09T10:09:53.271Z,7.60
2018-12-09T10:12:25.174Z,7.70
2018-12-09T10:14:56.780Z,7.70
2018-12-09T10:17:28.267Z,7.70
2018-12-09T10:19:59.679Z,7.80
2018-12-09T10:22:31.278Z,7.90
2018-12-09T10:25:02.790Z,8.00
2018-12-09T10:27:34.389Z,8.10
2018-12-09T10:30:06.711Z,8.00
2018-12-09T10:32:38.079Z,8.00
2018-12-09T10:35:09.669Z,8.10
2018-12-09T10:37:41.088Z,8.00
2018-12-09T10:40:12.669Z,8.10
2018-12-09T10:42:44.222Z,8.00
2018-12-09T10:45:16.333Z,8.00
2018-12-09T10:47:47.852Z,8.00
2018-12-09T10:50:19.418Z,7.90
2018-12-09T10:52:51.051Z,7.90
2018-12-09T10:55:22.349Z,7.90
2018-12-09T10:57:54.059Z,7.90
2018-12-09T11:00:30.298Z,7.90
2018-12-09T11:03:01.874Z,7.80
2018-12-09T11:05:33.296Z,7.80
2018-12-09T11:08:04.878Z,7.80
2018-12-09T11:10:36.345Z,7.80
2018-12-09T11:13:07.766Z,7.80
2018-12-09T11:15:39.255Z,7.80
2018-12-09T11:18:10.790Z,7.80
2018-12-09T11:20:42.339Z,7.80
2018-12-09T11:23:13.793Z,7.80
2018-12-09T11:25:45.262Z,7.80
2018-12-09T11:28:16.868Z,7.80
2018-12-09T11:30:48.563Z,7.90
2018-12-09T11:33:20.199Z,7.90
2018-12-09T11:35:52.038Z,8.00
2018-12-09T11:38:24.051Z,8.00
2018-12-09T11:40:55.703Z,8.00
2018-12-09T11:43:27.206Z,8.00
2018-12-09T11:45:58.710Z,8.00
2018-12-09T11:48:29.992Z,8.00
2018-12-09T11:51:01.378Z,8.00
2018-12-09T11:53:32.954Z,8.00
2018-12-09T11:56:04.268Z,8.00
2018-12-09T11:58:35.855Z,8.10
2018-12-09T12:01:07.539Z,8.10
2018-12-09T12:03:39.070Z,8.10
2018-12-09T12:06:10.675Z,8.10
2018-12-09T12:08:42.203Z,8.10
2018-12-09T12:11:13.753Z,8.00
2018-12-09T12:13:45.204Z,8.00
2018-12-09T12:16:16.735Z,7.90
2018-12-09T12:18:48.292Z,8.00
2018-12-09T12:21:19.617Z,8.00
2018-12-09T12:23:51.182Z,8.00
2018-12-09T12:26:22.655Z,8.00
2018-12-09T12:28:54.204Z,8.00
2018-12-09T12:31:25.610Z,8.00
2018-12-09T12:33:57.074Z,8.00
2018-12-09T12:36:28.815Z,8.00
2018-12-09T12:39:00.440Z,7.90
2018-12-09T12:41:32.023Z,7.90
2018-12-09T12:44:03.843Z,7.90
2018-12-09T12:46:35.396Z,7.80
2018-12-09T12:49:07.040Z,7.80
2018-12-09T12:51:38.586Z,7.80
2018-12-09T12:54:10.613Z,7.80
2018-12-09T12:56:42.430Z,7.80
2018-12-09T12:59:13.928Z,7.80
2018-12-09T13:01:45.451Z,7.70
2018-12-09T13:04:16.932Z,7.70
2018-12-09T13:06:48.451Z,7.70
2018-12-09T13:09:19.847Z,7.70
2018-12-09T13:11:51.342Z,7.70
2018-12-09T13:14:22.743Z,7.70
2018-12-09T13:16:54.398Z,7.70
2018-12-09T13:19:25.908Z,7.70
2018-12-09T13:21:57.409Z,7.70
2018-12-09T13:24:28.909Z,7.70
2018-12-09T13:27:00.451Z,7.70
2018-12-09T13:29:31.763Z,7.70
2018-12-09T13:32:03.304Z,7.60
2018-12-09T13:34:34.698Z,7.60
2018-12-09T13:37:06.315Z,7.60
2018-12-09T13:39:38.090Z,7.60
2018-12-09T13:42:09.738Z,7.50
2018-12-09T13:44:41.239Z,7.40
2018-12-09T13:47:12.838Z,7.40
2018-12-09T13:49:44.347Z,7.40
2018-12-09T13:52:15.755Z,7.40
2018-12-09T13:54:47.347Z,7.40
2018-12-09T13:57:18.719Z,7.30
2018-12-09T13:59:50.234Z,7.30
2018-12-09T14:02:21.668Z,7.30
2018-12-09T14:04:53.643Z,7.30
2018-12-09T14:07:25.081Z,7.30
2018-12-09T14:09:56.673Z,7.30
2018-12-09T14:12:28.172Z,7.30
2018-12-09T14:14:59.784Z,7.20
2018-12-09T14:17:31.182Z,7.20
2018-12-09T14:20:02.787Z,7.20
2018-12-09T14:22:34.386Z,7.20
2018-12-09T14:25:06.700Z,7.20
2018-12-09T14:27:38.156Z,7.20
2018-12-09T14:30:09.715Z,7.20
2018-12-09T14:32:41.264Z,7.10
2018-12-09T14:35:12.779Z,7.10
2018-12-09T14:37:44.279Z,7.10
2018-12-09T14:40:15.702Z,7.10
2018-12-09T14:42:47.168Z,7.10
2018-12-09T14:45:18.604Z,7.10
2018-12-09T14:47:50.170Z,7.10
2018-12-09T14:50:21.679Z,7.10
2018-12-09T14:52:53.189Z,7.00
2018-12-09T14:55:24.596Z,7.00
2018-12-09T14:57:56.187Z,7.10
2018-12-09T15:00:27.610Z,7.00
2018-12-09T15:02:59.202Z,7.10
2018-12-09T15:05:30.667Z,7.10
2018-12-09T15:08:02.195Z,7.10
2018-12-09T15:10:33.657Z,7.10
2018-12-09T15:13:05.199Z,7.10
2018-12-09T15:15:36.659Z,7.10
2018-12-09T15:18:08.259Z,7.10
2018-12-09T15:20:39.662Z,7.10
2018-12-09T15:23:11.177Z,7.10
2018-12-09T15:25:42.488Z,7.10
2018-12-09T15:28:13.886Z,7.10
2018-12-09T15:30:45.519Z,7.10
2018-12-09T15:33:17.070Z,7.20
2018-12-09T15:35:48.576Z,7.10
2018-12-09T15:38:19.900Z,7.10
2018-12-09T15:40:51.475Z,7.20
2018-12-09T15:43:22.944Z,7.20
2018-12-09T15:45:54.606Z,7.20
2018-12-09T15:48:26.048Z,7.20
2018-12-09T15:50:57.612Z,7.20
2018-12-09T15:53:29.125Z,7.30
2018-12-09T15:56:00.599Z,7.30
2018-12-09T15:58:32.055Z,7.30
2018-12-09T16:01:03.800Z,7.20
2018-12-09T16:03:35.311Z,7.30
2018-12-09T16:06:07.123Z,7.20
2018-12-09T16:08:38.735Z,7.20
2018-12-09T16:11:10.243Z,7.20
2018-12-09T16:13:41.644Z,7.20
2018-12-09T16:16:13.251Z,7.10
2018-12-09T16:18:44.512Z,7.10
2018-12-09T16:21:16.139Z,7.10
2018-12-09T16:23:47.738Z,7.00
2018-12-09T16:26:19.350Z,7.00
2018-12-09T16:28:50.764Z,7.10
2018-12-09T16:31:22.347Z,7.00
2018-12-09T16:33:53.702Z,7.00
2018-12-09T16:36:25.257Z,6.90
2018-12-09T16:38:56.716Z,6.90
2018-12-09T16:41:28.253Z,6.90
2018-12-09T16:43:59.671Z,6.90
2018-12-09T16:46:31.268Z,6.80
2018-12-09T16:49:02.813Z,6.90
2018-12-09T16:51:34.366Z,6.80
2018-12-09T16:54:06.519Z,6.80
2018-12-09T16:56:37.968Z,6.80
2018-12-09T16:59:09.315Z,6.80
2018-12-09T17:01:40.611Z,6.80
2018-12-09T17:04:12.202Z,6.80
2018-12-09T17:06:43.601Z,6.80
2018-12-09T17:09:15.207Z,6.80
2018-12-09T17:11:46.713Z,6.80
2018-12-09T17:14:18.318Z,6.80
2018-12-09T17:16:49.823Z,6.80
2018-12-09T17:19:21.368Z,6.80
2018-12-09T17:21:52.828Z,6.80
2018-12-09T17:24:24.419Z,6.90
2018-12-09T17:26:55.932Z,6.90
2018-12-09T17:29:27.337Z,6.90
2018-12-09T17:31:58.922Z,6.90
2018-12-09T17:34:30.335Z,6.90
2018-12-09T17:37:01.922Z,6.90
2018-12-09T17:39:33.481Z,6.90
2018-12-09T17:42:04.800Z,6.90
2018-12-09T17:44:36.291Z,6.80
2018-12-09T17:47:07.890Z,6.80
2018-12-09T17:49:39.403Z,6.80
2018-12-09T17:52:10.668Z,6.80
2018-12-09T17:54:42.278Z,6.80
2018-12-09T17:57:13.810Z,6.80
2018-12-09T17:59:45.387Z,6.80
2018-12-09T18:02:17.023Z,6.80
2018-12-09T18:04:48.520Z,6.80
2018-12-09T18:07:20.069Z,6.80
2018-12-09T18:09:51.525Z,6.90
2018-12-09T18:12:23.079Z,6.80
2018-12-09T18:14:54.499Z,6.80
2018-12-09T18:17:26.461Z,6.80
2018-12-09T18:19:57.911Z,6.80
2018-12-09T18:22:29.492Z,6.80
2018-12-09T18:25:07.023Z,6.80
2018-12-09T18:27:38.643Z,6.80
2018-12-09T18:30:10.600Z,6.70
2018-12-09T18:32:42.098Z,6.70
2018-12-09T18:35:13.783Z,6.70
2018-12-09T18:37:46.491Z,6.60
2018-12-09T18:40:18.171Z,6.60
2018-12-09T18:42:50.436Z,6.60
2018-12-09T18:45:22.137Z,6.50
2018-12-09T18:47:53.647Z,6.50
2018-12-09T18:50:25.253Z,6.50
2018-12-09T18:52:56.749Z,6.60
2018-12-09T18:55:28.284Z,6.60
2018-12-09T18:58:00.767Z,6.60
2018-12-09T19:00:32.507Z,6.50
2018-12-09T19:03:04.093Z,6.50
2018-12-09T19:05:35.549Z,6.50
2018-12-09T19:08:07.149Z,6.40
2018-12-09T19:10:39.046Z,6.40
2018-12-09T19:13:10.370Z,6.40
2018-12-09T19:15:41.903Z,6.40
2018-12-09T19:18:13.446Z,6.40
2018-12-09T19:20:44.880Z,6.40
2018-12-09T19:23:16.498Z,6.50
2018-12-09T19:25:47.980Z,6.40
2018-12-09T19:28:19.630Z,6.40
2018-12-09T19:30:51.424Z,6.40
2018-12-09T19:33:23.031Z,6.40
2018-12-09T19:35:54.499Z,6.30
2018-12-09T19:38:26.043Z,6.30
2018-12-09T19:40:57.513Z,6.20
2018-12-09T19:43:29.004Z,6.30
2018-12-09T19:46:00.522Z,6.30
2018-12-09T19:48:32.166Z,6.30
2018-12-09T19:51:03.628Z,6.30
2018-12-09T19:53:35.159Z,6.30
2018-12-09T19:56:05.931Z,6.30
2018-12-09T19:58:37.355Z,6.30
2018-12-09T20:01:08.963Z,6.30
2018-12-09T20:03:40.461Z,6.30
2018-12-09T20:06:12.028Z,6.40
2018-12-09T20:08:43.458Z,6.40
2018-12-09T20:11:15.076Z,6.40
2018-12-09T20:13:46.537Z,6.30
2018-12-09T20:16:18.179Z,6.40
2018-12-09T20:18:49.815Z,6.40
2018-12-09T20:21:21.328Z,6.40
2018-12-09T20:23:52.814Z,6.40
2018-12-09T20:26:24.630Z,6.40
2018-12-09T20:28:56.014Z,6.40
2018-12-09T20:31:27.605Z,6.40
2018-12-09T20:33:59.099Z,6.40
2018-12-09T20:36:30.526Z,6.40
2018-12-09T20:39:02.007Z,6.40
2018-12-09T20:41:33.557Z,6.40
2018-12-09T20:44:05.120Z,6.40
2018-12-09T20:46:36.542Z,6.40
2018-12-09T20:49:08.023Z,6.40
2018-12-09T20:51:39.630Z,6.40
2018-12-09T20:54:11.002Z,6.30
2018-12-09T20:56:42.378Z,6.30
2018-12-09T20:59:13.875Z,6.40
2018-12-09T21:01:45.205Z,6.30
2018-12-09T21:04:16.583Z,6.30
2018-12-09T21:06:48.164Z,6.30
2018-12-09T21:09:19.784Z,6.30
2018-12-09T21:11:51.293Z,6.30
2018-12-09T21:14:23.302Z,6.30
2018-12-09T21:16:55.718Z,6.30
2018-12-09T21:19:27.162Z,6.30
2018-12-09T21:21:58.642Z,6.20
2018-12-09T21:24:30.045Z,6.30
2018-12-09T21:27:01.629Z,6.30
2018-12-09T21:29:33.143Z,6.30
2018-12-09T21:32:04.886Z,6.30
2018-12-09T21:34:36.861Z,6.20
2018-12-09T21:37:08.624Z,6.30
2018-12-09T21:39:40.902Z,6.30
2018-12-09T21:42:12.214Z,6.20
2018-12-09T21:44:43.641Z,6.20
2018-12-09T21:47:16.434Z,6.30
2018-12-09T21:49:47.892Z,6.30
2018-12-09T21:52:19.417Z,6.30
2018-12-09T21:54:50.884Z,6.30
2018-12-09T21:57:22.481Z,6.30
2018-12-09T21:59:53.883Z,6.30
2018-12-09T22:02:25.431Z,6.30
2018-12-09T22:04:56.896Z,6.30
2018-12-09T22:07:28.301Z,6.30
2018-12-09T22:09:59.891Z,6.30
2018-12-09T22:12:31.438Z,6.30
2018-12-09T22:15:03.026Z,6.30
2018-12-09T22:17:34.540Z,6.30
2018-12-09T22:20:06.135Z,6.30
2018-12-09T22:22:37.671Z,6.30
2018-12-09T22:25:09.128Z,6.30
2018-12-09T22:27:40.818Z,6.30
2018-12-09T22:30:12.246Z,6.30
2018-12-09T22:32:43.828Z,6.30
2018-12-09T22:35:15.375Z,6.30
2018-12-09T22:37:46.827Z,6.30
2018-12-09T22:40:18.334Z,6.40
2018-12-09T22:42:49.749Z,6.40
2018-12-09T22:45:21.434Z,6.30
2018-12-09T22:47:52.987Z,6.30
2018-12-09T22:50:24.544Z,6.30
2018-12-09T22:52:56.160Z,6.30
2018-12-09T22:55:27.660Z,6.40
2018-12-09T22:57:59.263Z,6.30
2018-12-09T23:00:31.472Z,6.30
2018-12-09T23:03:04.710Z,6.30
2018-12-09T23:05:36.211Z,6.30
2018-12-09T23:08:07.681Z,6.30
2018-12-09T23:10:39.291Z,6.30
2018-12-09T23:13:10.791Z,6.30
2018-12-09T23:15:42.341Z,6.30
2018-12-09T23:18:13.794Z,6.30
2018-12-09T23:20:45.351Z,6.30
2018-12-09T23:23:16.805Z,6.30
2018-12-09T23:25:48.344Z,6.30
2018-12-09T23:28:19.913Z,6.20
2018-12-09T23:30:51.570Z,5.70
2018-12-09T23:33:23.023Z,5.30
2018-12-09T23:35:54.419Z,5.10
2018-12-09T23:38:26.010Z,4.90
2018-12-09T23:40:57.426Z,4.70
2018-12-09T23:43:29.015Z,4.70
2018-12-09T23:46:00.650Z,4.70
2018-12-09T23:48:32.143Z,4.70
2018-12-09T23:51:03.736Z,4.70
2018-12-09T23:53:35.239Z,4.70
2018-12-09T23:56:06.682Z,4.80
2018-12-09T23:58:38.238Z,4.80
